createdAt,value
2022-12-24T00:01:59.264Z,99849.97
2022-12-24T00:06:05.380Z,99845.75
2022-12-24T00:10:07.538Z,99852.09
2022-12-24T00:14:09.018Z,99856.63
2022-12-24T00:18:10.497Z,99842.50
2022-12-24T00:22:11.967Z,99848.28
2022-12-24T00:26:14.401Z,99849.69
2022-12-24T00:30:16.059Z,99857.16
2022-12-24T00:34:17.488Z,99856.97
2022-12-24T00:38:19.002Z,99857.00
2022-12-24T00:42:20.975Z,99859.50
2022-12-24T00:46:23.946Z,99862.00
2022-12-24T00:50:25.460Z,99869.22
2022-12-24T00:54:26.881Z,99873.69
2022-12-24T00:58:28.309Z,99890.41
2022-12-24T01:02:29.964Z,99894.16
2022-12-24T01:06:31.540Z,99882.41
2022-12-24T01:10:33.069Z,99886.06
2022-12-24T01:14:34.521Z,99894.69
2022-12-24T01:18:35.950Z,99904.72
2022-12-24T01:22:37.372Z,99895.06
2022-12-24T01:26:38.820Z,99895.06
2022-12-24T01:30:41.284Z,99898.47
2022-12-24T01:34:42.921Z,99904.78
2022-12-24T01:38:44.423Z,99899.22
2022-12-24T01:43:07.595Z,99902.84
2022-12-24T01:47:25.718Z,99914.94
2022-12-24T01:51:32.867Z,99925.69
2022-12-24T01:55:34.501Z,99923.78
2022-12-24T01:59:37.554Z,99932.13
2022-12-24T02:03:39.204Z,99931.59
2022-12-24T02:07:43.115Z,99950.94
2022-12-24T02:11:45.042Z,99956.06
2022-12-24T02:16:14.190Z,99967.28
2022-12-24T02:20:54.551Z,99963.75
2022-12-24T02:25:20.283Z,99974.00
2022-12-24T02:29:24.432Z,99976.59
2022-12-24T02:33:35.820Z,99987.00
2022-12-24T02:37:45.856Z,99994.50
2022-12-24T02:42:07.814Z,99994.28
2022-12-24T02:46:15.196Z,100006.63
2022-12-24T02:50:18.161Z,100008.66
2022-12-24T02:54:19.793Z,100015.16
2022-12-24T02:59:02.738Z,100030.09
2022-12-24T03:03:42.542Z,100020.47
2022-12-24T03:07:57.384Z,100027.56
2022-12-24T03:12:04.120Z,100029.66
2022-12-24T03:16:13.274Z,100036.41
2022-12-24T03:20:20.818Z,100037.84
2022-12-24T03:24:22.353Z,100049.53
2022-12-24T03:28:27.653Z,100043.22
2022-12-24T03:32:30.836Z,100043.00
2022-12-24T03:36:32.289Z,100064.09
2022-12-24T03:40:34.102Z,100065.50
2022-12-24T03:44:35.583Z,100070.97
2022-12-24T03:48:37.125Z,100079.03
2022-12-24T03:52:38.666Z,100078.84
2022-12-24T03:56:40.104Z,100091.75
2022-12-24T04:00:41.623Z,100078.19
2022-12-24T04:04:43.158Z,100084.34
2022-12-24T04:08:45.161Z,100095.25
2022-12-24T04:12:48.950Z,100099.41
2022-12-24T04:16:51.774Z,100100.25
2022-12-24T04:20:56.793Z,100093.22
2022-12-24T04:24:58.217Z,100102.66
2022-12-24T04:28:59.653Z,100108.97
2022-12-24T04:33:01.674Z,100120.56
2022-12-24T04:37:03.672Z,100131.66
2022-12-24T04:41:17.395Z,100142.59
2022-12-24T04:45:24.066Z,100161.19
2022-12-24T04:49:25.603Z,100158.66
2022-12-24T04:53:27.017Z,100158.16
2022-12-24T04:57:28.445Z,100158.66
2022-12-24T05:01:33.097Z,100157.28
2022-12-24T05:05:34.825Z,100170.72
2022-12-24T05:09:36.309Z,100166.00
2022-12-24T05:13:45.999Z,100158.00
2022-12-24T05:17:48.391Z,100164.16
2022-12-24T05:22:09.774Z,100170.13
2022-12-24T05:26:40.325Z,100166.72
2022-12-24T05:30:41.803Z,100169.44
2022-12-24T05:34:43.345Z,100165.56
2022-12-24T05:38:44.824Z,100157.88
2022-12-24T05:42:46.230Z,100170.63
2022-12-24T05:46:47.786Z,100190.69
2022-12-24T05:50:49.249Z,100195.16
2022-12-24T05:54:50.697Z,100208.13
2022-12-24T05:58:53.572Z,100208.81
2022-12-24T06:02:55.201Z,100204.81
2022-12-24T06:06:56.721Z,100206.97
2022-12-24T06:11:00.461Z,100212.59
2022-12-24T06:15:02.091Z,100222.56
2022-12-24T06:19:03.568Z,100216.72
2022-12-24T06:23:05.037Z,100226.78
2022-12-24T06:27:06.541Z,100222.00
2022-12-24T06:31:12.711Z,100230.59
2022-12-24T06:35:14.238Z,100241.94
2022-12-24T06:39:15.690Z,100252.25
2022-12-24T06:43:17.241Z,100238.03
2022-12-24T06:47:18.670Z,100261.78
2022-12-24T06:51:20.761Z,100253.88
2022-12-24T06:55:22.227Z,100259.84
2022-12-24T06:59:23.722Z,100272.03
2022-12-24T07:03:25.227Z,100278.34
2022-12-24T07:07:29.552Z,100283.16
2022-12-24T07:11:31.112Z,100285.00
2022-12-24T07:15:32.641Z,100291.94
2022-12-24T07:19:34.309Z,100290.28
2022-12-24T07:23:35.787Z,100298.06
2022-12-24T07:27:38.317Z,100312.34
2022-12-24T07:31:39.856Z,100326.31
2022-12-24T07:35:41.370Z,100322.97
2022-12-24T07:39:42.803Z,100327.34
2022-12-24T07:43:44.355Z,100339.31
2022-12-24T07:47:45.780Z,100336.94
2022-12-24T07:51:47.251Z,100341.69
2022-12-24T07:55:48.893Z,100351.91
2022-12-24T07:59:50.338Z,100350.63
2022-12-24T08:03:54.519Z,100357.78
2022-12-24T08:07:56.494Z,100343.31
2022-12-24T08:11:57.952Z,100343.16
2022-12-24T08:15:59.634Z,100357.41
2022-12-24T08:20:01.137Z,100358.28
2022-12-24T08:24:02.620Z,100357.81
2022-12-24T08:28:05.590Z,100364.00
2022-12-24T08:32:08.313Z,100356.09
2022-12-24T08:36:09.898Z,100367.94
2022-12-24T08:40:15.195Z,100372.16
2022-12-24T08:44:16.676Z,100372.59
2022-12-24T08:48:18.206Z,100383.44
2022-12-24T08:52:19.738Z,100379.75
2022-12-24T08:56:21.203Z,100382.28
2022-12-24T09:00:22.925Z,100390.56
2022-12-24T09:04:24.391Z,100398.38
2022-12-24T09:08:25.837Z,100398.81
2022-12-24T09:12:27.345Z,100416.28
2022-12-24T09:16:29.058Z,100421.00
2022-12-24T09:20:30.571Z,100428.00
2022-12-24T09:24:32.294Z,100427.53
2022-12-24T09:28:33.816Z,100435.00
2022-12-24T09:32:35.301Z,100441.66
2022-12-24T09:36:36.851Z,100452.09
2022-12-24T09:40:40.349Z,100458.19
2022-12-24T09:44:55.640Z,100464.69
2022-12-24T09:49:02.632Z,100469.44
2022-12-24T09:53:12.550Z,100487.00
2022-12-24T09:57:19.404Z,100489.47
2022-12-24T10:01:21.057Z,100497.03
2022-12-24T10:05:47.943Z,100511.81
2022-12-24T10:09:52.147Z,100520.53
2022-12-24T10:14:17.535Z,100524.69
2022-12-24T10:18:48.900Z,100526.13
2022-12-24T10:23:02.833Z,100533.97
2022-12-24T10:27:14.792Z,100537.97
2022-12-24T10:31:18.003Z,100548.22
2022-12-24T10:35:54.173Z,100564.16
2022-12-24T10:39:58.111Z,100569.28
2022-12-24T10:44:00.136Z,100570.72
2022-12-24T10:48:06.077Z,100568.59
2022-12-24T10:52:14.497Z,100566.97
2022-12-24T10:56:18.660Z,100576.41
2022-12-24T11:00:24.320Z,100578.00
2022-12-24T11:04:45.033Z,100584.69
2022-12-24T11:08:47.196Z,100595.91
2022-12-24T11:13:12.855Z,100599.97
2022-12-24T11:17:23.123Z,100581.78
2022-12-24T11:21:31.306Z,100583.78
2022-12-24T11:25:37.910Z,100596.66
2022-12-24T11:29:39.376Z,100583.16
2022-12-24T11:33:49.598Z,100582.50
2022-12-24T11:37:59.780Z,100593.81
2022-12-24T11:42:01.290Z,100601.72
2022-12-24T11:46:32.650Z,100602.97
2022-12-24T11:50:36.674Z,100615.88
2022-12-24T11:54:43.385Z,100609.44
2022-12-24T11:58:56.695Z,100607.53
2022-12-24T12:03:02.464Z,100617.78
2022-12-24T12:07:15.102Z,100612.66
2022-12-24T12:11:17.259Z,100613.06
2022-12-24T12:15:25.569Z,100622.72
2022-12-24T12:19:33.634Z,100632.22
2022-12-24T12:23:46.998Z,100637.41
2022-12-24T12:27:52.961Z,100632.31
2022-12-24T12:32:04.442Z,100631.94
2022-12-24T12:36:09.996Z,100631.66
2022-12-24T12:40:16.309Z,100638.91
2022-12-24T12:44:26.583Z,100649.84
2022-12-24T12:48:37.075Z,100657.78
2022-12-24T12:52:54.276Z,100662.72
2022-12-24T12:57:00.875Z,100664.84
2022-12-24T13:01:19.201Z,100666.50
2022-12-24T13:05:29.743Z,100676.41
2022-12-24T13:09:57.389Z,100659.63
2022-12-24T13:14:07.918Z,100668.38
2022-12-24T13:18:51.829Z,100669.06
2022-12-24T13:22:56.364Z,100667.16
2022-12-24T13:27:21.194Z,100671.03
2022-12-24T13:31:25.416Z,100671.25
2022-12-24T13:35:35.265Z,100674.97
2022-12-24T13:40:02.884Z,100684.19
2022-12-24T13:44:25.011Z,100697.06
2022-12-24T13:48:34.504Z,100702.69
2022-12-24T13:52:42.147Z,100714.59
2022-12-24T13:56:44.155Z,100723.22
2022-12-24T14:00:54.999Z,100723.22
2022-12-24T14:05:02.093Z,100735.22
2022-12-24T14:09:17.010Z,100738.31
2022-12-24T14:13:40.008Z,100744.31
2022-12-24T14:17:41.640Z,100749.75
2022-12-24T14:21:52.616Z,100754.13
2022-12-24T14:25:54.050Z,100755.06
2022-12-24T14:30:07.122Z,100760.28
2022-12-24T14:34:13.115Z,100760.63
2022-12-24T14:38:21.329Z,100772.34
2022-12-24T14:42:36.069Z,100778.03
2022-12-24T14:47:01.507Z,100786.22
2022-12-24T14:51:18.136Z,100790.22
2022-12-24T14:55:43.363Z,100797.09
2022-12-24T14:59:54.819Z,100805.78
2022-12-24T15:04:02.197Z,100806.50
2022-12-24T15:08:10.270Z,100813.53
2022-12-24T15:12:12.598Z,100816.50
2022-12-24T15:16:22.487Z,100834.97
2022-12-24T15:20:25.448Z,100825.41
2022-12-24T15:24:33.345Z,100838.75
2022-12-24T15:28:39.208Z,100846.88
2022-12-24T15:32:40.718Z,100849.63
2022-12-24T15:36:42.211Z,100859.31
2022-12-24T15:40:49.009Z,100851.16
2022-12-24T15:45:06.035Z,100859.00
2022-12-24T15:49:16.126Z,100861.38
2022-12-24T15:53:24.686Z,100867.72
2022-12-24T15:57:33.928Z,100870.75
2022-12-24T16:01:37.850Z,100872.50
2022-12-24T16:05:40.143Z,100880.66
2022-12-24T16:09:43.791Z,100887.03
2022-12-24T16:13:51.391Z,100882.47
2022-12-24T16:17:53.277Z,100908.69
2022-12-24T16:21:58.254Z,100908.19
2022-12-24T16:25:59.807Z,100899.81
2022-12-24T16:30:01.299Z,100894.09
2022-12-24T16:34:03.649Z,100909.03
2022-12-24T16:38:05.245Z,100911.16
2022-12-24T16:42:25.365Z,100901.34
2022-12-24T16:46:26.936Z,100910.78
2022-12-24T16:50:28.505Z,100929.66
2022-12-24T16:54:30.143Z,100938.91
2022-12-24T16:58:31.800Z,100944.75
2022-12-24T17:02:33.376Z,100939.50
2022-12-24T17:06:35.043Z,100936.38
2022-12-24T17:10:36.976Z,100944.19
2022-12-24T17:14:39.114Z,100950.31
2022-12-24T17:18:40.640Z,100957.25
2022-12-24T17:22:42.162Z,100964.28
2022-12-24T17:26:44.185Z,100975.50
2022-12-24T17:30:45.794Z,100973.22
2022-12-24T17:34:47.330Z,100977.09
2022-12-24T17:38:49.069Z,100969.59
2022-12-24T17:42:50.585Z,100984.03
2022-12-24T17:46:52.285Z,100981.25
2022-12-24T17:50:53.876Z,100983.31
2022-12-24T17:54:55.431Z,100990.69
2022-12-24T17:58:57.807Z,100991.59
2022-12-24T18:02:59.513Z,101004.31
2022-12-24T18:07:03.154Z,101009.47
2022-12-24T18:11:16.701Z,101015.13
2022-12-24T18:15:20.212Z,101017.19
2022-12-24T18:19:21.703Z,101017.03
2022-12-24T18:23:23.172Z,101025.81
2022-12-24T18:27:24.638Z,101036.38
2022-12-24T18:31:26.962Z,101045.34
2022-12-24T18:35:28.779Z,101047.06
2022-12-24T18:39:30.239Z,101035.19
2022-12-24T18:43:31.813Z,101049.53
2022-12-24T18:47:33.227Z,101055.44
2022-12-24T18:51:36.164Z,101056.31
2022-12-24T18:55:38.227Z,101060.94
2022-12-24T18:59:39.716Z,101064.38
2022-12-24T19:03:41.219Z,101071.19
2022-12-24T19:07:42.720Z,101080.38
2022-12-24T19:11:44.207Z,101071.59
2022-12-24T19:15:45.753Z,101084.56
2022-12-24T19:19:47.265Z,101077.97
2022-12-24T19:23:49.125Z,101078.47
2022-12-24T19:27:50.589Z,101084.91
2022-12-24T19:31:52.270Z,101076.47
2022-12-24T19:35:53.980Z,101071.84
2022-12-24T19:39:55.455Z,101083.09
2022-12-24T19:44:01.350Z,101095.88
2022-12-24T19:48:03.290Z,101090.59
2022-12-24T19:52:04.861Z,101109.09
2022-12-24T19:56:08.574Z,101118.03
2022-12-24T20:00:10.961Z,101116.56
2022-12-24T20:04:12.442Z,101109.59
2022-12-24T20:08:13.972Z,101104.22
2022-12-24T20:12:15.440Z,101108.47
2022-12-24T20:16:21.562Z,101115.94
2022-12-24T20:20:23.148Z,101111.41
2022-12-24T20:24:24.629Z,101115.94
2022-12-24T20:28:30.947Z,101115.31
2022-12-24T20:32:33.632Z,101117.41
2022-12-24T20:36:37.161Z,101119.53
2022-12-24T20:40:43.431Z,101115.94
2022-12-24T20:44:44.879Z,101124.56
2022-12-24T20:48:46.935Z,101134.41
2022-12-24T20:52:48.352Z,101133.28
2022-12-24T20:56:58.271Z,101137.97
2022-12-24T21:01:00.482Z,101142.88
2022-12-24T21:05:02.956Z,101147.91
2022-12-24T21:09:05.986Z,101145.16
2022-12-24T21:13:07.893Z,101146.75
2022-12-24T21:17:15.198Z,101154.22
2022-12-24T21:21:17.658Z,101159.41
2022-12-24T21:25:19.200Z,101164.94
2022-12-24T21:29:20.674Z,101163.16
2022-12-24T21:33:22.498Z,101168.66
2022-12-24T21:37:23.981Z,101174.19
2022-12-24T21:41:26.141Z,101174.97
2022-12-24T21:45:27.683Z,101182.59
2022-12-24T21:49:47.775Z,101182.41
2022-12-24T21:54:08.123Z,101187.94
2022-12-24T21:58:09.493Z,101187.31
2022-12-24T22:02:13.821Z,101203.38
2022-12-24T22:06:35.794Z,101211.28
2022-12-24T22:10:56.992Z,101205.94
2022-12-24T22:14:59.193Z,101208.06
2022-12-24T22:19:00.641Z,101212.91
2022-12-24T22:23:02.195Z,101214.38
2022-12-24T22:27:03.639Z,101223.63
2022-12-24T22:31:05.355Z,101232.19
2022-12-24T22:35:07.050Z,101226.88
2022-12-24T22:39:08.579Z,101230.44
2022-12-24T22:43:10.111Z,101234.66
2022-12-24T22:47:11.584Z,101242.28
2022-12-24T22:51:19.346Z,101243.75
2022-12-24T22:55:21.500Z,101252.34
2022-12-24T22:59:22.968Z,101262.53
2022-12-24T23:03:25.185Z,101263.53
2022-12-24T23:07:26.778Z,101260.59
2022-12-24T23:11:28.338Z,101256.50
2022-12-24T23:15:29.896Z,101260.84
2022-12-24T23:19:33.369Z,101261.03
2022-12-24T23:23:37.065Z,101258.19
2022-12-24T23:27:38.740Z,101251.81
2022-12-24T23:31:40.248Z,101259.03
2022-12-24T23:35:41.763Z,101267.41
2022-12-24T23:39:43.175Z,101270.72
2022-12-24T23:43:45.471Z,101262.00
2022-12-24T23:47:46.907Z,101262.97
2022-12-24T23:51:48.388Z,101259.09
2022-12-24T23:55:49.915Z,101260.81
2022-12-24T23:59:51.397Z,101252.50
